createdAt,value
2023-06-27T00:01:46.109Z,101634.25
2023-06-27T00:04:12.588Z,101628.53
2023-06-27T00:06:42.233Z,101629.59
2023-06-27T00:09:10.555Z,101633.94
2023-06-27T00:11:40.136Z,101636.34
2023-06-27T00:14:07.003Z,101630.38
2023-06-27T00:16:34.008Z,101633.56
2023-06-27T00:19:04.971Z,101629.75
2023-06-27T00:21:35.941Z,101637.63
2023-06-27T00:24:02.907Z,101632.06
2023-06-27T00:26:29.622Z,101640.19
2023-06-27T00:28:56.370Z,101643.44
2023-06-27T00:31:23.088Z,101633.16
2023-06-27T00:33:49.551Z,101621.97
2023-06-27T00:36:16.047Z,101639.81
2023-06-27T00:38:42.494Z,101633.25
2023-06-27T00:41:08.985Z,101634.94
2023-06-27T00:43:35.461Z,101633.69
2023-06-27T00:46:07.335Z,101650.28
2023-06-27T00:48:33.952Z,101639.84
2023-06-27T00:51:00.582Z,101639.50
2023-06-27T00:53:27.751Z,101647.69
2023-06-27T00:55:54.499Z,101644.91
2023-06-27T00:58:21.511Z,101642.56
2023-06-27T01:00:49.235Z,101644.09
2023-06-27T01:03:16.075Z,101630.97
2023-06-27T01:05:43.308Z,101628.19
2023-06-27T01:08:18.652Z,101645.44
2023-06-27T01:11:07.775Z,101642.66
2023-06-27T01:13:41.680Z,101648.66
2023-06-27T01:16:09.783Z,101638.84
2023-06-27T01:18:38.256Z,101639.06
2023-06-27T01:21:09.118Z,101628.25
2023-06-27T01:23:50.162Z,101634.44
2023-06-27T01:26:17.131Z,101616.94
2023-06-27T01:28:43.553Z,101638.06
2023-06-27T01:31:30.632Z,101632.94
2023-06-27T01:33:56.959Z,101633.81
2023-06-27T01:36:37.980Z,101636.81
2023-06-27T01:39:10.005Z,101640.06
2023-06-27T01:41:39.141Z,101632.16
2023-06-27T01:44:07.191Z,101634.06
2023-06-27T01:46:34.063Z,101632.56
2023-06-27T01:49:01.067Z,101620.84
2023-06-27T01:51:27.533Z,101623.38
2023-06-27T01:53:53.956Z,101632.81
2023-06-27T01:56:20.464Z,101624.25
2023-06-27T01:58:47.314Z,101629.78
2023-06-27T02:01:13.809Z,101620.00
2023-06-27T02:03:40.282Z,101610.81
2023-06-27T02:06:06.692Z,101618.50
2023-06-27T02:08:33.261Z,101618.34
2023-06-27T02:10:59.858Z,101609.00
2023-06-27T02:13:26.816Z,101603.03
2023-06-27T02:15:53.248Z,101604.97
2023-06-27T02:18:19.664Z,101603.72
2023-06-27T02:20:46.089Z,101619.50
2023-06-27T02:23:12.498Z,101613.69
2023-06-27T02:25:39.343Z,101610.13
2023-06-27T02:28:06.819Z,101617.16
2023-06-27T02:30:33.317Z,101611.59
2023-06-27T02:32:59.861Z,101610.75
2023-06-27T02:35:26.362Z,101597.38
2023-06-27T02:37:52.863Z,101596.53
2023-06-27T02:40:19.297Z,101610.59
2023-06-27T02:42:45.791Z,101602.09
2023-06-27T02:45:12.321Z,101610.84
2023-06-27T02:47:39.556Z,101598.66
2023-06-27T02:50:06.370Z,101592.50
2023-06-27T02:52:32.817Z,101611.50
2023-06-27T02:54:59.276Z,101615.75
2023-06-27T02:57:25.738Z,101605.97
2023-06-27T02:59:52.153Z,101610.53
2023-06-27T03:02:18.576Z,101604.13
2023-06-27T03:04:47.813Z,101606.25
2023-06-27T03:07:14.622Z,101607.13
2023-06-27T03:09:41.089Z,101600.75
2023-06-27T03:12:08.248Z,101613.13
2023-06-27T03:14:34.664Z,101609.72
2023-06-27T03:17:01.125Z,101599.50
2023-06-27T03:19:42.120Z,101601.44
2023-06-27T03:22:09.913Z,101601.50
2023-06-27T03:24:36.329Z,101616.84
2023-06-27T03:27:02.760Z,101599.81
2023-06-27T03:29:29.192Z,101611.94
2023-06-27T03:31:58.469Z,101615.19
2023-06-27T03:34:25.034Z,101619.44
2023-06-27T03:36:51.472Z,101610.94
2023-06-27T03:39:17.895Z,101617.56
2023-06-27T03:41:44.332Z,101620.28
2023-06-27T03:44:10.903Z,101622.22
2023-06-27T03:46:37.580Z,101623.06
2023-06-27T03:49:04.075Z,101621.78
2023-06-27T03:51:30.529Z,101601.13
2023-06-27T03:53:56.958Z,101609.00
2023-06-27T03:56:23.994Z,101624.56
2023-06-27T03:58:50.409Z,101620.47
2023-06-27T04:01:16.822Z,101620.69
2023-06-27T04:03:43.298Z,101607.03
2023-06-27T04:06:09.825Z,101609.75
2023-06-27T04:08:36.245Z,101607.03
2023-06-27T04:11:02.905Z,101602.34
2023-06-27T04:13:29.347Z,101611.94
2023-06-27T04:15:55.795Z,101610.84
2023-06-27T04:18:22.209Z,101619.16
2023-06-27T04:20:48.610Z,101590.63
2023-06-27T04:23:15.135Z,101594.00
2023-06-27T04:25:45.078Z,101616.41
2023-06-27T04:28:11.492Z,101608.06
2023-06-27T04:30:37.920Z,101618.09
2023-06-27T04:33:04.504Z,101601.25
2023-06-27T04:35:31.031Z,101608.50
2023-06-27T04:37:57.896Z,101590.63
2023-06-27T04:40:24.306Z,101603.63
2023-06-27T04:42:50.715Z,101601.31
2023-06-27T04:45:17.152Z,101621.34
2023-06-27T04:47:44.005Z,101608.72
2023-06-27T04:50:15.554Z,101626.66
2023-06-27T04:52:42.572Z,101600.66
2023-06-27T04:55:09.794Z,101612.13
2023-06-27T04:57:36.268Z,101614.22
2023-06-27T05:00:06.098Z,101618.75
2023-06-27T05:02:32.601Z,101614.22
2023-06-27T05:04:59.303Z,101609.66
2023-06-27T05:07:25.778Z,101606.16
2023-06-27T05:09:52.209Z,101604.19
2023-06-27T05:12:18.686Z,101610.28
2023-06-27T05:14:45.087Z,101599.56
2023-06-27T05:17:11.490Z,101606.78
2023-06-27T05:19:37.913Z,101603.47
2023-06-27T05:22:04.351Z,101617.06
2023-06-27T05:24:30.765Z,101619.31
2023-06-27T05:26:57.186Z,101612.38
2023-06-27T05:29:26.064Z,101606.47
2023-06-27T05:31:53.591Z,101610.94
2023-06-27T05:34:20.061Z,101590.16
2023-06-27T05:36:46.481Z,101610.25
2023-06-27T05:41:03.734Z,101614.94
2023-06-27T05:43:30.151Z,101617.00
2023-06-27T05:45:56.576Z,101591.44
2023-06-27T05:48:22.991Z,101600.16
2023-06-27T05:50:49.389Z,101614.47
2023-06-27T05:53:15.803Z,101611.31
2023-06-27T05:55:42.375Z,101606.06
2023-06-27T05:58:09.018Z,101609.94
2023-06-27T06:00:35.417Z,101598.16
2023-06-27T06:03:01.898Z,101601.25
2023-06-27T06:05:28.355Z,101606.72
2023-06-27T06:07:55.232Z,101607.47
2023-06-27T06:10:23.019Z,101599.66
2023-06-27T06:12:49.981Z,101607.22
2023-06-27T06:15:18.774Z,101611.34
2023-06-27T06:17:45.731Z,101606.06
2023-06-27T06:20:12.432Z,101607.38
2023-06-27T06:22:39.088Z,101603.16
2023-06-27T06:25:06.058Z,101612.66
2023-06-27T06:27:32.526Z,101578.69
2023-06-27T06:29:59.055Z,101596.53
2023-06-27T06:32:25.480Z,101607.19
2023-06-27T06:34:52.079Z,101608.66
2023-06-27T06:37:18.575Z,101600.03
2023-06-27T06:39:45.032Z,101600.75
2023-06-27T06:42:11.601Z,101620.31
2023-06-27T06:44:38.069Z,101624.69
2023-06-27T06:47:04.809Z,101595.59
2023-06-27T06:49:31.226Z,101609.16
2023-06-27T06:51:57.676Z,101598.94
2023-06-27T06:54:24.092Z,101609.22
2023-06-27T06:56:50.773Z,101619.06
2023-06-27T06:59:17.220Z,101610.28
2023-06-27T07:01:43.750Z,101611.75
2023-06-27T07:04:10.214Z,101610.66
2023-06-27T07:06:36.942Z,101598.03
2023-06-27T07:09:03.432Z,101583.94
2023-06-27T07:11:29.858Z,101585.81
2023-06-27T07:13:56.286Z,101596.03
2023-06-27T07:16:22.795Z,101592.34
2023-06-27T07:18:49.253Z,101580.09
2023-06-27T07:21:15.734Z,101572.31
2023-06-27T07:23:42.213Z,101589.13
2023-06-27T07:26:08.632Z,101588.25
2023-06-27T07:28:35.250Z,101582.56
2023-06-27T07:31:01.725Z,101579.91
2023-06-27T07:33:28.265Z,101582.88
2023-06-27T07:35:54.704Z,101575.22
2023-06-27T07:38:21.118Z,101588.34
2023-06-27T07:40:47.530Z,101588.78
2023-06-27T07:43:13.952Z,101594.44
2023-06-27T07:45:40.432Z,101587.81
2023-06-27T07:48:07.209Z,101596.72
2023-06-27T07:50:33.681Z,101589.78
2023-06-27T07:53:00.169Z,101607.38
2023-06-27T07:55:26.602Z,101607.16
2023-06-27T07:57:53.054Z,101600.50
2023-06-27T08:00:19.807Z,101594.47
2023-06-27T08:02:46.272Z,101591.47
2023-06-27T08:05:12.788Z,101596.91
2023-06-27T08:07:39.379Z,101598.88
2023-06-27T08:10:06.243Z,101576.22
2023-06-27T08:12:32.689Z,101588.16
2023-06-27T08:14:59.100Z,101581.72
2023-06-27T08:17:25.539Z,101585.59
2023-06-27T08:19:51.970Z,101588.91
2023-06-27T08:22:18.388Z,101592.16
2023-06-27T08:24:44.843Z,101593.13
2023-06-27T08:27:11.242Z,101587.00
2023-06-27T08:29:37.649Z,101595.94
2023-06-27T08:32:04.402Z,101576.03
2023-06-27T08:34:33.112Z,101577.59
2023-06-27T08:36:59.716Z,101580.72
2023-06-27T08:39:27.398Z,101581.28
2023-06-27T08:41:53.879Z,101571.53
2023-06-27T08:44:20.312Z,101568.53
2023-06-27T08:46:48.336Z,101568.97
2023-06-27T08:49:23.323Z,101564.84
2023-06-27T08:51:51.529Z,101564.16
2023-06-27T08:54:24.379Z,101563.66
2023-06-27T08:56:51.971Z,101564.72
2023-06-27T08:59:20.983Z,101550.00
2023-06-27T09:01:49.114Z,101558.22
2023-06-27T09:04:16.321Z,101569.97
2023-06-27T09:06:42.825Z,101571.59
2023-06-27T09:09:09.476Z,101575.63
2023-06-27T09:11:36.007Z,101571.41
2023-06-27T09:14:03.071Z,101584.63
2023-06-27T09:18:08.829Z,101593.94
2023-06-27T09:20:35.443Z,101576.81
2023-06-27T09:23:06.600Z,101576.53
2023-06-27T09:25:33.144Z,101549.97
2023-06-27T09:28:13.912Z,101569.44
2023-06-27T09:30:40.613Z,101568.56
2023-06-27T09:33:07.245Z,101550.13
2023-06-27T09:35:59.534Z,101551.09
2023-06-27T09:41:07.392Z,101564.81
2023-06-27T09:43:36.412Z,101556.22
2023-06-27T09:46:05.104Z,101553.63
2023-06-27T09:48:31.740Z,101565.41
2023-06-27T09:51:02.082Z,101559.59
2023-06-27T09:56:29.005Z,101562.47
2023-06-27T09:58:58.599Z,101557.75
2023-06-27T10:01:28.542Z,101573.22
2023-06-27T10:03:55.053Z,101568.69
2023-06-27T10:06:21.677Z,101567.91
2023-06-27T10:08:48.178Z,101566.25
2023-06-27T10:12:15.475Z,101575.22
2023-06-27T10:14:44.456Z,101578.22
2023-06-27T10:17:19.694Z,101577.75
2023-06-27T10:19:46.687Z,101588.28
2023-06-27T10:22:18.011Z,101588.88
2023-06-27T10:24:46.439Z,101577.91
2023-06-27T10:27:16.770Z,101573.94
2023-06-27T10:29:43.706Z,101567.47
2023-06-27T10:32:10.196Z,101570.53
2023-06-27T10:34:41.839Z,101560.13
2023-06-27T10:37:13.144Z,101562.47
2023-06-27T10:39:41.251Z,101548.72
2023-06-27T10:42:16.878Z,101550.56
2023-06-27T10:44:55.447Z,101552.47
2023-06-27T10:47:21.887Z,101551.28
2023-06-27T10:49:49.309Z,101547.28
2023-06-27T10:52:24.135Z,101546.25
2023-06-27T10:55:16.226Z,101548.50
2023-06-27T10:57:48.912Z,101546.97
2023-06-27T11:00:25.971Z,101534.09
2023-06-27T11:02:55.911Z,101540.13
2023-06-27T11:05:55.161Z,101545.47
2023-06-27T11:08:22.278Z,101554.19
2023-06-27T11:11:08.610Z,101539.31
2023-06-27T11:13:45.944Z,101522.19
2023-06-27T11:16:13.274Z,101530.56
2023-06-27T11:18:39.889Z,101531.34
2023-06-27T11:21:06.341Z,101513.84
2023-06-27T11:23:32.818Z,101532.59
2023-06-27T11:26:00.203Z,101533.00
2023-06-27T11:28:26.859Z,101533.09
2023-06-27T11:31:00.766Z,101544.09
2023-06-27T11:33:27.517Z,101542.09
2023-06-27T11:35:57.267Z,101539.19
2023-06-27T11:38:26.540Z,101535.97
2023-06-27T11:40:53.512Z,101541.50
2023-06-27T11:43:20.301Z,101537.34
2023-06-27T11:45:51.282Z,101539.72
2023-06-27T11:48:17.873Z,101520.63
2023-06-27T11:51:05.172Z,101527.19
2023-06-27T11:53:31.658Z,101539.34
2023-06-27T11:58:36.574Z,101528.50
2023-06-27T12:01:05.542Z,101539.41
2023-06-27T12:03:34.294Z,101528.13
2023-06-27T12:06:00.849Z,101543.34
2023-06-27T12:08:34.911Z,101535.66
2023-06-27T12:11:04.121Z,101544.44
2023-06-27T12:13:36.812Z,101533.66
